sensor_id;sensor_type;location;lat;lon;timestamp;temperature;humidity
29571;DHT22;16814;52.118;11.436;2023-07-20T00:01:47;17.50;99.90
29571;DHT22;16814;52.118;11.436;2023-07-20T00:04:13;17.50;99.90
29571;DHT22;16814;52.118;11.436;2023-07-20T00:06:39;18.00;99.90
29571;DHT22;16814;52.118;11.436;2023-07-20T00:09:08;17.40;99.90
29571;DHT22;16814;52.118;11.436;2023-07-20T00:11:36;17.30;99.90
29571;DHT22;16814;52.118;11.436;2023-07-20T00:14:04;17.30;99.90
29571;DHT22;16814;52.118;11.436;2023-07-20T00:16:30;17.20;99.90
29571;DHT22;16814;52.118;11.436;2023-07-20T00:18:55;17.10;99.90
29571;DHT22;16814;52.118;11.436;2023-07-20T00:21:21;17.10;99.90
29571;DHT22;16814;52.118;11.436;2023-07-20T00:23:46;17.10;99.90
29571;DHT22;16814;52.118;11.436;2023-07-20T00:26:12;17.00;99.90
29571;DHT22;16814;52.118;11.436;2023-07-20T00:28:37;17.00;99.90
29571;DHT22;16814;52.118;11.436;2023-07-20T00:31:04;17.00;99.90
29571;DHT22;16814;52.118;11.436;2023-07-20T00:33:30;16.90;99.90
29571;DHT22;16814;52.118;11.436;2023-07-20T00:35:55;16.90;99.90
29571;DHT22;16814;52.118;11.436;2023-07-20T00:38:21;16.90;99.90
29571;DHT22;16814;52.118;11.436;2023-07-20T00:40:47;16.80;99.90
29571;DHT22;16814;52.118;11.436;2023-07-20T00:43:13;16.80;99.90
29571;DHT22;16814;52.118;11.436;2023-07-20T00:45:39;16.80;99.90
29571;DHT22;16814;52.118;11.436;2023-07-20T00:48:06;16.70;99.90
29571;DHT22;16814;52.118;11.436;2023-07-20T00:50:33;16.70;99.90
29571;DHT22;16814;52.118;11.436;2023-07-20T00:52:59;16.60;99.90
29571;DHT22;16814;52.118;11.436;2023-07-20T00:55:26;16.60;99.90
29571;DHT22;16814;52.118;11.436;2023-07-20T00:57:52;16.50;99.90
29571;DHT22;16814;52.118;11.436;2023-07-20T01:00:18;16.50;99.90
29571;DHT22;16814;52.118;11.436;2023-07-20T01:02:45;16.50;99.90
29571;DHT22;16814;52.118;11.436;2023-07-20T01:05:11;16.50;99.90
29571;DHT22;16814;52.118;11.436;2023-07-20T01:07:57;16.40;99.90
29571;DHT22;16814;52.118;11.436;2023-07-20T01:10:36;16.40;99.90
29571;DHT22;16814;52.118;11.436;2023-07-20T01:13:06;16.30;99.90
29571;DHT22;16814;52.118;11.436;2023-07-20T01:15:34;16.50;99.90
29571;DHT22;16814;52.118;11.436;2023-07-20T01:17:59;16.30;99.90
29571;DHT22;16814;52.118;11.436;2023-07-20T01:20:28;16.20;99.90
29571;DHT22;16814;52.118;11.436;2023-07-20T01:23:27;16.20;99.90
29571;DHT22;16814;52.118;11.436;2023-07-20T01:26:21;16.20;99.90
29571;DHT22;16814;52.118;11.436;2023-07-20T01:29:22;16.20;99.90
29571;DHT22;16814;52.118;11.436;2023-07-20T01:31:52;16.20;99.90
29571;DHT22;16814;52.118;11.436;2023-07-20T01:34:19;16.00;99.90
29571;DHT22;16814;52.118;11.436;2023-07-20T01:36:48;16.10;99.90
29571;DHT22;16814;52.118;11.436;2023-07-20T01:39:16;16.10;99.90
29571;DHT22;16814;52.118;11.436;2023-07-20T01:41:42;16.10;99.90
29571;DHT22;16814;52.118;11.436;2023-07-20T01:44:08;16.10;99.90
29571;DHT22;16814;52.118;11.436;2023-07-20T01:46:34;15.90;99.90
29571;DHT22;16814;52.118;11.436;2023-07-20T01:48:59;15.90;99.90
29571;DHT22;16814;52.118;11.436;2023-07-20T01:51:25;15.80;99.90
29571;DHT22;16814;52.118;11.436;2023-07-20T01:53:50;15.90;99.90
29571;DHT22;16814;52.118;11.436;2023-07-20T01:56:16;15.80;99.90
29571;DHT22;16814;52.118;11.436;2023-07-20T01:58:42;15.80;99.90
29571;DHT22;16814;52.118;11.436;2023-07-20T02:01:07;15.80;99.90
29571;DHT22;16814;52.118;11.436;2023-07-20T02:03:33;15.70;99.90
29571;DHT22;16814;52.118;11.436;2023-07-20T02:05:58;15.70;99.90
29571;DHT22;16814;52.118;11.436;2023-07-20T02:08:24;15.60;99.90
29571;DHT22;16814;52.118;11.436;2023-07-20T02:10:51;15.60;99.90
29571;DHT22;16814;52.118;11.436;2023-07-20T02:13:17;15.40;99.90
29571;DHT22;16814;52.118;11.436;2023-07-20T02:15:43;15.50;99.90
29571;DHT22;16814;52.118;11.436;2023-07-20T02:18:09;15.50;99.90
29571;DHT22;16814;52.118;11.436;2023-07-20T02:20:35;15.50;99.90
29571;DHT22;16814;52.118;11.436;2023-07-20T02:23:01;15.60;99.90
29571;DHT22;16814;52.118;11.436;2023-07-20T02:25:26;15.70;99.90
29571;DHT22;16814;52.118;11.436;2023-07-20T02:27:52;15.60;99.90
29571;DHT22;16814;52.118;11.436;2023-07-20T02:30:18;15.70;99.90
29571;DHT22;16814;52.118;11.436;2023-07-20T02:32:43;15.80;99.90
29571;DHT22;16814;52.118;11.436;2023-07-20T02:35:14;15.80;99.90
29571;DHT22;16814;52.118;11.436;2023-07-20T02:37:39;15.80;99.90
29571;DHT22;16814;52.118;11.436;2023-07-20T02:40:06;15.90;99.90
29571;DHT22;16814;52.118;11.436;2023-07-20T02:42:33;15.90;99.90
29571;DHT22;16814;52.118;11.436;2023-07-20T02:44:58;15.90;99.90
29571;DHT22;16814;52.118;11.436;2023-07-20T02:47:24;15.90;99.90
29571;DHT22;16814;52.118;11.436;2023-07-20T02:49:49;15.80;99.90
29571;DHT22;16814;52.118;11.436;2023-07-20T02:52:15;15.80;99.90
29571;DHT22;16814;52.118;11.436;2023-07-20T02:54:40;15.60;99.90
29571;DHT22;16814;52.118;11.436;2023-07-20T02:57:06;15.50;99.90
29571;DHT22;16814;52.118;11.436;2023-07-20T02:59:32;15.60;99.90
29571;DHT22;16814;52.118;11.436;2023-07-20T03:01:57;15.60;99.90
29571;DHT22;16814;52.118;11.436;2023-07-20T03:04:26;15.70;99.90
29571;DHT22;16814;52.118;11.436;2023-07-20T03:06:51;15.70;99.90
29571;DHT22;16814;52.118;11.436;2023-07-20T03:09:17;15.60;99.90
29571;DHT22;16814;52.118;11.436;2023-07-20T03:11:43;15.60;99.90
29571;DHT22;16814;52.118;11.436;2023-07-20T03:14:08;15.60;99.90
29571;DHT22;16814;52.118;11.436;2023-07-20T03:16:36;15.60;99.90
29571;DHT22;16814;52.118;11.436;2023-07-20T03:19:02;15.60;99.90
29571;DHT22;16814;52.118;11.436;2023-07-20T03:21:28;15.60;99.90
29571;DHT22;16814;52.118;11.436;2023-07-20T03:23:54;15.60;99.90
29571;DHT22;16814;52.118;11.436;2023-07-20T03:26:20;15.40;99.90
29571;DHT22;16814;52.118;11.436;2023-07-20T03:28:45;15.30;99.90
29571;DHT22;16814;52.118;11.436;2023-07-20T03:31:11;15.30;99.90
29571;DHT22;16814;52.118;11.436;2023-07-20T03:33:36;15.30;99.90
29571;DHT22;16814;52.118;11.436;2023-07-20T03:36:02;15.30;99.90
29571;DHT22;16814;52.118;11.436;2023-07-20T03:38:28;15.30;99.90
29571;DHT22;16814;52.118;11.436;2023-07-20T03:40:55;15.30;99.90
29571;DHT22;16814;52.118;11.436;2023-07-20T03:43:22;15.40;99.90
29571;DHT22;16814;52.118;11.436;2023-07-20T03:45:48;15.60;99.90
29571;DHT22;16814;52.118;11.436;2023-07-20T03:48:19;15.70;99.90
29571;DHT22;16814;52.118;11.436;2023-07-20T03:50:47;15.80;99.90
29571;DHT22;16814;52.118;11.436;2023-07-20T03:53:13;15.80;99.90
29571;DHT22;16814;52.118;11.436;2023-07-20T03:55:40;15.80;99.90
29571;DHT22;16814;52.118;11.436;2023-07-20T03:58:07;15.80;99.90
29571;DHT22;16814;52.118;11.436;2023-07-20T04:00:33;15.80;99.90
29571;DHT22;16814;52.118;11.436;2023-07-20T04:02:59;15.80;99.90
29571;DHT22;16814;52.118;11.436;2023-07-20T04:05:25;15.90;99.90
29571;DHT22;16814;52.118;11.436;2023-07-20T04:07:51;15.80;99.90
29571;DHT22;16814;52.118;11.436;2023-07-20T04:10:17;15.80;99.90
29571;DHT22;16814;52.118;11.436;2023-07-20T04:12:44;15.80;99.90
29571;DHT22;16814;52.118;11.436;2023-07-20T04:15:10;15.80;99.90
29571;DHT22;16814;52.118;11.436;2023-07-20T04:17:35;15.70;99.90
29571;DHT22;16814;52.118;11.436;2023-07-20T04:20:01;15.70;99.90
29571;DHT22;16814;52.118;11.436;2023-07-20T04:22:28;15.60;99.90
29571;DHT22;16814;52.118;11.436;2023-07-20T04:24:53;15.70;99.90
29571;DHT22;16814;52.118;11.436;2023-07-20T04:27:19;15.60;99.90
29571;DHT22;16814;52.118;11.436;2023-07-20T04:29:44;15.60;99.90
29571;DHT22;16814;52.118;11.436;2023-07-20T04:32:10;15.60;99.90
29571;DHT22;16814;52.118;11.436;2023-07-20T04:34:36;15.60;99.90
29571;DHT22;16814;52.118;11.436;2023-07-20T04:37:03;15.60;99.90
29571;DHT22;16814;52.118;11.436;2023-07-20T04:39:29;15.70;99.90
29571;DHT22;16814;52.118;11.436;2023-07-20T04:41:55;15.70;99.90
29571;DHT22;16814;52.118;11.436;2023-07-20T04:44:21;15.70;99.90
29571;DHT22;16814;52.118;11.436;2023-07-20T04:46:46;15.80;99.90
29571;DHT22;16814;52.118;11.436;2023-07-20T04:49:12;15.90;99.90
29571;DHT22;16814;52.118;11.436;2023-07-20T04:51:39;16.00;99.90
29571;DHT22;16814;52.118;11.436;2023-07-20T04:54:04;16.00;99.90
29571;DHT22;16814;52.118;11.436;2023-07-20T04:56:30;16.20;99.90
29571;DHT22;16814;52.118;11.436;2023-07-20T04:58:56;16.20;99.90
29571;DHT22;16814;52.118;11.436;2023-07-20T05:01:22;16.20;99.90
29571;DHT22;16814;52.118;11.436;2023-07-20T05:03:48;16.40;99.90
29571;DHT22;16814;52.118;11.436;2023-07-20T05:06:14;16.50;99.90
29571;DHT22;16814;52.118;11.436;2023-07-20T05:08:40;16.50;99.90
29571;DHT22;16814;52.118;11.436;2023-07-20T05:11:05;16.50;99.90
29571;DHT22;16814;52.118;11.436;2023-07-20T05:13:32;16.60;99.90
29571;DHT22;16814;52.118;11.436;2023-07-20T05:15:58;16.60;99.90
29571;DHT22;16814;52.118;11.436;2023-07-20T05:18:23;16.40;99.90
29571;DHT22;16814;52.118;11.436;2023-07-20T05:20:50;16.40;99.90
29571;DHT22;16814;52.118;11.436;2023-07-20T05:23:18;16.40;99.90
29571;DHT22;16814;52.118;11.436;2023-07-20T05:25:43;16.40;99.90
29571;DHT22;16814;52.118;11.436;2023-07-20T05:28:09;16.50;99.90
29571;DHT22;16814;52.118;11.436;2023-07-20T05:30:35;16.60;99.90
29571;DHT22;16814;52.118;11.436;2023-07-20T05:33:00;16.50;99.90
29571;DHT22;16814;52.118;11.436;2023-07-20T05:35:26;16.60;99.90
29571;DHT22;16814;52.118;11.436;2023-07-20T05:37:52;16.60;99.90
29571;DHT22;16814;52.118;11.436;2023-07-20T05:40:17;16.70;99.90
29571;DHT22;16814;52.118;11.436;2023-07-20T05:42:48;16.80;99.90
29571;DHT22;16814;52.118;11.436;2023-07-20T05:45:17;16.90;99.90
29571;DHT22;16814;52.118;11.436;2023-07-20T05:47:43;16.90;99.90
29571;DHT22;16814;52.118;11.436;2023-07-20T05:50:09;17.00;99.90
29571;DHT22;16814;52.118;11.436;2023-07-20T05:52:35;17.20;99.90
29571;DHT22;16814;52.118;11.436;2023-07-20T05:55:00;17.30;99.90
29571;DHT22;16814;52.118;11.436;2023-07-20T05:57:26;17.60;99.90
29571;DHT22;16814;52.118;11.436;2023-07-20T05:59:51;18.50;99.90
29571;DHT22;16814;52.118;11.436;2023-07-20T06:02:17;19.90;99.90
29571;DHT22;16814;52.118;11.436;2023-07-20T06:04:42;20.80;99.90
29571;DHT22;16814;52.118;11.436;2023-07-20T06:07:08;20.60;99.90
29571;DHT22;16814;52.118;11.436;2023-07-20T06:09:34;20.10;99.90
29571;DHT22;16814;52.118;11.436;2023-07-20T06:11:59;19.50;99.90
29571;DHT22;16814;52.118;11.436;2023-07-20T06:14:25;19.10;99.90
29571;DHT22;16814;52.118;11.436;2023-07-20T06:16:51;18.90;99.90
29571;DHT22;16814;52.118;11.436;2023-07-20T06:19:16;19.00;99.90
29571;DHT22;16814;52.118;11.436;2023-07-20T06:21:42;19.30;99.90
29571;DHT22;16814;52.118;11.436;2023-07-20T06:24:08;19.90;99.90
29571;DHT22;16814;52.118;11.436;2023-07-20T06:26:34;20.40;99.90
29571;DHT22;16814;52.118;11.436;2023-07-20T06:29:05;20.40;99.90
29571;DHT22;16814;52.118;11.436;2023-07-20T06:31:32;20.10;99.90
29571;DHT22;16814;52.118;11.436;2023-07-20T06:33:57;19.80;99.90
29571;DHT22;16814;52.118;11.436;2023-07-20T06:36:23;19.60;99.90
29571;DHT22;16814;52.118;11.436;2023-07-20T06:38:48;19.80;99.90
29571;DHT22;16814;52.118;11.436;2023-07-20T06:41:14;20.00;99.90
29571;DHT22;16814;52.118;11.436;2023-07-20T06:43:40;20.20;99.90
29571;DHT22;16814;52.118;11.436;2023-07-20T06:46:05;20.60;99.90
29571;DHT22;16814;52.118;11.436;2023-07-20T06:48:31;20.60;99.90
29571;DHT22;16814;52.118;11.436;2023-07-20T06:50:56;20.50;99.90
29571;DHT22;16814;52.118;11.436;2023-07-20T06:53:22;20.50;99.90
29571;DHT22;16814;52.118;11.436;2023-07-20T06:55:48;20.40;99.90
29571;DHT22;16814;52.118;11.436;2023-07-20T06:58:13;20.10;99.90
29571;DHT22;16814;52.118;11.436;2023-07-20T07:37:33;19.00;99.90
29571;DHT22;16814;52.118;11.436;2023-07-20T07:39:59;17.70;99.90
29571;DHT22;16814;52.118;11.436;2023-07-20T07:42:24;17.70;99.90
29571;DHT22;16814;52.118;11.436;2023-07-20T07:44:50;17.90;99.90
29571;DHT22;16814;52.118;11.436;2023-07-20T07:47:16;18.00;99.90
29571;DHT22;16814;52.118;11.436;2023-07-20T07:49:42;18.00;99.90
29571;DHT22;16814;52.118;11.436;2023-07-20T07:52:08;18.00;99.90
29571;DHT22;16814;52.118;11.436;2023-07-20T07:54:33;18.10;99.90
29571;DHT22;16814;52.118;11.436;2023-07-20T07:56:59;18.10;99.90
29571;DHT22;16814;52.118;11.436;2023-07-20T07:59:24;18.10;99.90
29571;DHT22;16814;52.118;11.436;2023-07-20T08:01:50;18.10;99.90
29571;DHT22;16814;52.118;11.436;2023-07-20T08:04:15;18.00;99.90
29571;DHT22;16814;52.118;11.436;2023-07-20T08:06:41;18.00;99.90
29571;DHT22;16814;52.118;11.436;2023-07-20T08:09:07;18.00;99.90
29571;DHT22;16814;52.118;11.436;2023-07-20T08:11:33;17.90;99.90
29571;DHT22;16814;52.118;11.436;2023-07-20T08:14:00;17.90;99.90
29571;DHT22;16814;52.118;11.436;2023-07-20T08:16:26;18.00;99.90
29571;DHT22;16814;52.118;11.436;2023-07-20T08:18:51;18.00;99.90
29571;DHT22;16814;52.118;11.436;2023-07-20T08:21:17;18.10;99.90
29571;DHT22;16814;52.118;11.436;2023-07-20T08:23:43;18.10;99.90
29571;DHT22;16814;52.118;11.436;2023-07-20T08:26:08;18.20;99.90
29571;DHT22;16814;52.118;11.436;2023-07-20T08:28:34;18.20;99.90
29571;DHT22;16814;52.118;11.436;2023-07-20T08:31:00;18.10;99.90
29571;DHT22;16814;52.118;11.436;2023-07-20T08:33:25;18.10;99.90
29571;DHT22;16814;52.118;11.436;2023-07-20T08:35:54;18.10;99.90
29571;DHT22;16814;52.118;11.436;2023-07-20T08:38:20;18.00;99.90
29571;DHT22;16814;52.118;11.436;2023-07-20T08:40:46;18.00;99.90
29571;DHT22;16814;52.118;11.436;2023-07-20T08:43:12;18.00;99.90
29571;DHT22;16814;52.118;11.436;2023-07-20T08:45:40;18.00;99.90
29571;DHT22;16814;52.118;11.436;2023-07-20T08:48:07;17.90;99.90
29571;DHT22;16814;52.118;11.436;2023-07-20T08:50:34;17.80;99.90
29571;DHT22;16814;52.118;11.436;2023-07-20T08:53:01;17.80;99.90
29571;DHT22;16814;52.118;11.436;2023-07-20T08:55:27;17.80;99.90
29571;DHT22;16814;52.118;11.436;2023-07-20T08:57:54;17.90;99.90
29571;DHT22;16814;52.118;11.436;2023-07-20T09:00:21;18.00;99.90
29571;DHT22;16814;52.118;11.436;2023-07-20T09:02:55;18.10;99.90
29571;DHT22;16814;52.118;11.436;2023-07-20T09:05:23;18.10;99.90
29571;DHT22;16814;52.118;11.436;2023-07-20T09:07:49;18.20;99.90
29571;DHT22;16814;52.118;11.436;2023-07-20T09:10:15;18.20;99.90
29571;DHT22;16814;52.118;11.436;2023-07-20T09:12:44;18.10;99.90
29571;DHT22;16814;52.118;11.436;2023-07-20T09:15:11;18.10;99.90
29571;DHT22;16814;52.118;11.436;2023-07-20T09:17:37;18.20;99.90
29571;DHT22;16814;52.118;11.436;2023-07-20T09:20:07;18.30;99.90
29571;DHT22;16814;52.118;11.436;2023-07-20T09:22:36;18.40;99.90
29571;DHT22;16814;52.118;11.436;2023-07-20T09:25:13;18.40;99.90
29571;DHT22;16814;52.118;11.436;2023-07-20T09:27:46;18.30;99.90
29571;DHT22;16814;52.118;11.436;2023-07-20T09:30:13;18.30;99.90
29571;DHT22;16814;52.118;11.436;2023-07-20T09:32:42;18.30;99.90
29571;DHT22;16814;52.118;11.436;2023-07-20T09:35:30;18.20;99.90
29571;DHT22;16814;52.118;11.436;2023-07-20T09:38:00;18.30;99.90
29571;DHT22;16814;52.118;11.436;2023-07-20T09:40:26;18.40;99.90
29571;DHT22;16814;52.118;11.436;2023-07-20T09:42:53;18.50;99.90
29571;DHT22;16814;52.118;11.436;2023-07-20T09:45:35;18.60;99.90
29571;DHT22;16814;52.118;11.436;2023-07-20T09:48:08;18.90;99.90
29571;DHT22;16814;52.118;11.436;2023-07-20T09:50:42;19.00;99.90
29571;DHT22;16814;52.118;11.436;2023-07-20T09:53:12;19.20;99.90
29571;DHT22;16814;52.118;11.436;2023-07-20T09:55:41;19.40;99.90
29571;DHT22;16814;52.118;11.436;2023-07-20T09:58:10;19.50;99.90
29571;DHT22;16814;52.118;11.436;2023-07-20T10:00:39;19.70;99.90
29571;DHT22;16814;52.118;11.436;2023-07-20T10:03:06;20.00;99.90
29571;DHT22;16814;52.118;11.436;2023-07-20T10:05:33;20.50;99.90
29571;DHT22;16814;52.118;11.436;2023-07-20T10:08:01;20.70;99.90
29571;DHT22;16814;52.118;11.436;2023-07-20T10:10:27;20.80;99.90
29571;DHT22;16814;52.118;11.436;2023-07-20T10:12:54;20.70;99.90
29571;DHT22;16814;52.118;11.436;2023-07-20T10:15:37;20.80;99.90
29571;DHT22;16814;52.118;11.436;2023-07-20T10:18:12;20.90;99.90
29571;DHT22;16814;52.118;11.436;2023-07-20T10:20:40;21.00;99.90
29571;DHT22;16814;52.118;11.436;2023-07-20T10:23:08;21.00;99.90
29571;DHT22;16814;52.118;11.436;2023-07-20T10:25:35;21.10;99.90
29571;DHT22;16814;52.118;11.436;2023-07-20T10:28:07;21.20;99.90
29571;DHT22;16814;52.118;11.436;2023-07-20T10:30:36;21.60;99.90
29571;DHT22;16814;52.118;11.436;2023-07-20T10:33:05;22.20;99.90
29571;DHT22;16814;52.118;11.436;2023-07-20T10:35:51;22.30;99.90
29571;DHT22;16814;52.118;11.436;2023-07-20T10:38:16;22.50;99.90
29571;DHT22;16814;52.118;11.436;2023-07-20T10:40:42;22.60;99.90
29571;DHT22;16814;52.118;11.436;2023-07-20T10:43:09;22.60;99.90
29571;DHT22;16814;52.118;11.436;2023-07-20T10:48:05;22.20;99.90
29571;DHT22;16814;52.118;11.436;2023-07-20T10:50:32;22.20;99.90
29571;DHT22;16814;52.118;11.436;2023-07-20T10:53:19;22.50;99.90
29571;DHT22;16814;52.118;11.436;2023-07-20T10:55:44;22.50;99.90
29571;DHT22;16814;52.118;11.436;2023-07-20T10:58:15;22.40;98.80
29571;DHT22;16814;52.118;11.436;2023-07-20T11:01:00;22.60;98.60
29571;DHT22;16814;52.118;11.436;2023-07-20T11:03:31;22.60;98.20
29571;DHT22;16814;52.118;11.436;2023-07-20T11:05:57;22.50;98.10
29571;DHT22;16814;52.118;11.436;2023-07-20T11:08:40;22.30;98.40
29571;DHT22;16814;52.118;11.436;2023-07-20T11:14:00;22.20;99.20
29571;DHT22;16814;52.118;11.436;2023-07-20T11:16:43;22.30;98.70
29571;DHT22;16814;52.118;11.436;2023-07-20T11:19:20;22.80;98.80
29571;DHT22;16814;52.118;11.436;2023-07-20T11:21:50;23.10;96.80
29571;DHT22;16814;52.118;11.436;2023-07-20T11:24:16;23.20;97.30
29571;DHT22;16814;52.118;11.436;2023-07-20T11:26:48;23.30;95.70
29571;DHT22;16814;52.118;11.436;2023-07-20T11:29:16;23.40;94.40
29571;DHT22;16814;52.118;11.436;2023-07-20T11:31:42;23.40;94.80
29571;DHT22;16814;52.118;11.436;2023-07-20T11:34:17;23.50;93.80
29571;DHT22;16814;52.118;11.436;2023-07-20T11:36:50;23.30;93.40
29571;DHT22;16814;52.118;11.436;2023-07-20T11:39:17;23.20;92.30
29571;DHT22;16814;52.118;11.436;2023-07-20T11:41:52;22.90;91.80
29571;DHT22;16814;52.118;11.436;2023-07-20T11:44:19;22.50;93.40
29571;DHT22;16814;52.118;11.436;2023-07-20T11:46:46;22.30;92.90
29571;DHT22;16814;52.118;11.436;2023-07-20T11:49:12;22.30;93.90
29571;DHT22;16814;52.118;11.436;2023-07-20T11:51:39;22.30;94.00
29571;DHT22;16814;52.118;11.436;2023-07-20T11:54:07;22.30;93.50
29571;DHT22;16814;52.118;11.436;2023-07-20T11:56:32;22.50;94.80
29571;DHT22;16814;52.118;11.436;2023-07-20T11:58:59;22.30;94.50
29571;DHT22;16814;52.118;11.436;2023-07-20T12:01:26;22.30;93.60
29571;DHT22;16814;52.118;11.436;2023-07-20T12:04:04;22.20;93.20
29571;DHT22;16814;52.118;11.436;2023-07-20T12:06:30;22.00;94.20
29571;DHT22;16814;52.118;11.436;2023-07-20T12:08:57;21.90;94.60
29571;DHT22;16814;52.118;11.436;2023-07-20T12:11:37;22.00;94.70
29571;DHT22;16814;52.118;11.436;2023-07-20T12:14:06;22.00;93.90
29571;DHT22;16814;52.118;11.436;2023-07-20T12:16:32;22.10;94.00
29571;DHT22;16814;52.118;11.436;2023-07-20T12:19:09;22.10;93.00
29571;DHT22;16814;52.118;11.436;2023-07-20T12:21:36;22.10;92.60
29571;DHT22;16814;52.118;11.436;2023-07-20T12:24:03;22.00;93.30
29571;DHT22;16814;52.118;11.436;2023-07-20T12:26:29;22.00;93.30
29571;DHT22;16814;52.118;11.436;2023-07-20T12:28:55;21.90;92.00
29571;DHT22;16814;52.118;11.436;2023-07-20T12:31:22;21.80;93.10
29571;DHT22;16814;52.118;11.436;2023-07-20T12:33:49;21.80;94.20
29571;DHT22;16814;52.118;11.436;2023-07-20T12:36:15;21.80;93.40
29571;DHT22;16814;52.118;11.436;2023-07-20T12:38:40;21.90;94.10
29571;DHT22;16814;52.118;11.436;2023-07-20T12:41:09;22.00;93.50
29571;DHT22;16814;52.118;11.436;2023-07-20T12:43:35;22.10;92.10
29571;DHT22;16814;52.118;11.436;2023-07-20T12:46:01;22.00;91.70
29571;DHT22;16814;52.118;11.436;2023-07-20T12:48:27;22.00;92.20
29571;DHT22;16814;52.118;11.436;2023-07-20T12:50:52;22.00;92.60
29571;DHT22;16814;52.118;11.436;2023-07-20T12:53:18;21.90;92.30
29571;DHT22;16814;52.118;11.436;2023-07-20T12:55:43;21.90;92.50
29571;DHT22;16814;52.118;11.436;2023-07-20T12:58:11;22.00;92.90
29571;DHT22;16814;52.118;11.436;2023-07-20T13:00:36;22.10;93.50
29571;DHT22;16814;52.118;11.436;2023-07-20T13:03:02;22.10;92.20
29571;DHT22;16814;52.118;11.436;2023-07-20T13:05:31;22.10;93.00
29571;DHT22;16814;52.118;11.436;2023-07-20T13:07:57;22.10;93.00
29571;DHT22;16814;52.118;11.436;2023-07-20T13:10:24;22.10;93.30
29571;DHT22;16814;52.118;11.436;2023-07-20T13:12:49;22.00;93.60
29571;DHT22;16814;52.118;11.436;2023-07-20T13:15:17;21.90;93.60
29571;DHT22;16814;52.118;11.436;2023-07-20T13:17:42;22.00;93.60
29571;DHT22;16814;52.118;11.436;2023-07-20T13:20:09;22.00;92.40
29571;DHT22;16814;52.118;11.436;2023-07-20T13:22:36;21.90;92.00
29571;DHT22;16814;52.118;11.436;2023-07-20T13:25:02;21.80;92.70
29571;DHT22;16814;52.118;11.436;2023-07-20T13:27:28;22.00;91.60
29571;DHT22;16814;52.118;11.436;2023-07-20T13:29:54;22.00;90.70
29571;DHT22;16814;52.118;11.436;2023-07-20T13:32:19;22.00;91.20
29571;DHT22;16814;52.118;11.436;2023-07-20T13:34:45;22.00;91.20
29571;DHT22;16814;52.118;11.436;2023-07-20T13:37:11;22.10;92.30
29571;DHT22;16814;52.118;11.436;2023-07-20T13:39:37;22.10;91.90
29571;DHT22;16814;52.118;11.436;2023-07-20T13:42:04;22.20;92.20
29571;DHT22;16814;52.118;11.436;2023-07-20T13:44:31;22.30;91.40
29571;DHT22;16814;52.118;11.436;2023-07-20T13:46:56;22.40;91.30
29571;DHT22;16814;52.118;11.436;2023-07-20T13:49:23;22.30;90.40
29571;DHT22;16814;52.118;11.436;2023-07-20T13:51:48;22.30;90.70
29571;DHT22;16814;52.118;11.436;2023-07-20T13:54:14;22.40;92.40
29571;DHT22;16814;52.118;11.436;2023-07-20T13:56:39;22.20;92.30
29571;DHT22;16814;52.118;11.436;2023-07-20T13:59:05;22.30;91.60
29571;DHT22;16814;52.118;11.436;2023-07-20T14:01:31;22.40;91.20
29571;DHT22;16814;52.118;11.436;2023-07-20T14:03:59;22.50;89.90
29571;DHT22;16814;52.118;11.436;2023-07-20T14:06:25;22.50;90.30
29571;DHT22;16814;52.118;11.436;2023-07-20T14:08:51;22.50;89.70
29571;DHT22;16814;52.118;11.436;2023-07-20T14:11:18;22.40;87.80
29571;DHT22;16814;52.118;11.436;2023-07-20T14:13:44;22.40;87.10
29571;DHT22;16814;52.118;11.436;2023-07-20T14:16:09;22.40;86.70
29571;DHT22;16814;52.118;11.436;2023-07-20T14:18:36;22.40;86.50
29571;DHT22;16814;52.118;11.436;2023-07-20T14:21:01;22.50;88.00
29571;DHT22;16814;52.118;11.436;2023-07-20T14:23:30;22.50;87.70
29571;DHT22;16814;52.118;11.436;2023-07-20T14:25:56;22.50;88.30
29571;DHT22;16814;52.118;11.436;2023-07-20T14:28:21;22.60;88.70
29571;DHT22;16814;52.118;11.436;2023-07-20T14:30:47;22.60;87.10
29571;DHT22;16814;52.118;11.436;2023-07-20T14:33:12;22.70;87.30
29571;DHT22;16814;52.118;11.436;2023-07-20T14:35:38;22.70;86.60
29571;DHT22;16814;52.118;11.436;2023-07-20T14:38:04;22.70;86.70
29571;DHT22;16814;52.118;11.436;2023-07-20T14:40:31;22.70;87.10
29571;DHT22;16814;52.118;11.436;2023-07-20T14:42:57;22.80;87.90
29571;DHT22;16814;52.118;11.436;2023-07-20T14:45:23;22.80;85.60
29571;DHT22;16814;52.118;11.436;2023-07-20T14:47:49;22.80;84.60
29571;DHT22;16814;52.118;11.436;2023-07-20T14:50:19;22.80;84.00
29571;DHT22;16814;52.118;11.436;2023-07-20T14:52:45;22.80;83.90
29571;DHT22;16814;52.118;11.436;2023-07-20T14:55:11;22.80;83.10
29571;DHT22;16814;52.118;11.436;2023-07-20T14:57:37;22.80;85.70
29571;DHT22;16814;52.118;11.436;2023-07-20T15:00:04;22.70;85.70
29571;DHT22;16814;52.118;11.436;2023-07-20T15:02:36;22.70;84.30
29571;DHT22;16814;52.118;11.436;2023-07-20T15:05:08;22.70;83.30
29571;DHT22;16814;52.118;11.436;2023-07-20T15:07:35;22.70;85.00
29571;DHT22;16814;52.118;11.436;2023-07-20T15:10:01;22.70;84.80
29571;DHT22;16814;52.118;11.436;2023-07-20T15:12:26;22.70;84.20
29571;DHT22;16814;52.118;11.436;2023-07-20T15:15:09;22.70;85.00
29571;DHT22;16814;52.118;11.436;2023-07-20T15:17:35;22.60;85.30
29571;DHT22;16814;52.118;11.436;2023-07-20T15:20:02;22.50;84.90
29571;DHT22;16814;52.118;11.436;2023-07-20T15:22:32;22.40;85.30
29571;DHT22;16814;52.118;11.436;2023-07-20T15:24:58;22.20;85.40
29571;DHT22;16814;52.118;11.436;2023-07-20T15:27:23;22.20;86.50
29571;DHT22;16814;52.118;11.436;2023-07-20T15:29:49;22.10;86.70
29571;DHT22;16814;52.118;11.436;2023-07-20T15:32:17;22.20;88.20
29571;DHT22;16814;52.118;11.436;2023-07-20T15:34:43;22.10;85.50
29571;DHT22;16814;52.118;11.436;2023-07-20T15:37:10;22.10;87.40
29571;DHT22;16814;52.118;11.436;2023-07-20T15:39:36;22.00;87.00
29571;DHT22;16814;52.118;11.436;2023-07-20T15:42:02;22.10;86.60
29571;DHT22;16814;52.118;11.436;2023-07-20T15:44:28;22.10;88.00
29571;DHT22;16814;52.118;11.436;2023-07-20T15:46:53;22.10;89.10
29571;DHT22;16814;52.118;11.436;2023-07-20T15:49:20;22.00;89.50
29571;DHT22;16814;52.118;11.436;2023-07-20T15:51:47;22.10;88.80
29571;DHT22;16814;52.118;11.436;2023-07-20T15:54:13;22.10;87.40
29571;DHT22;16814;52.118;11.436;2023-07-20T15:56:41;22.30;87.00
29571;DHT22;16814;52.118;11.436;2023-07-20T15:59:09;22.20;87.20